Time;durP1;ratioP1;P1;durP2;ratioP2;P2;SDS_P1;SDS_P2;PMS_P1;PMS_P2;Temp;Humidity;BMP_temperature;BMP_pressure;BME280_temperature;BME280_humidity;BME280_pressure;Samples;Min_cycle;Max_cycle;Signal;HPM_P1;HPM_P2
2022/07/25 00:01:39;;;;;;;7.93;6.88;;;;;;;22.72;63.36;100879.59;5100087;27;20058;-85
2022/07/25 00:04:07;;;;;;;8.80;6.83;;;;;;;22.74;63.98;100869.03;5120359;27;20058;-85
2022/07/25 00:06:33;;;;;;;7.88;6.20;;;;;;;22.68;65.06;100873.00;5120937;27;20120;-85
2022/07/25 00:08:58;;;;;;;10.50;7.30;;;;;;;22.66;63.97;100866.09;5119984;27;20048;-85
2022/07/25 00:11:24;;;;;;;8.87;6.23;;;;;;;22.65;64.16;100856.16;5137377;27;20101;-85
2022/07/25 00:13:49;;;;;;;8.43;6.50;;;;;;;22.61;64.34;100855.94;5120083;27;20042;-85
2022/07/25 00:16:15;;;;;;;7.13;6.43;;;;;;;22.59;64.02;100853.47;5102874;27;20103;-85
2022/07/25 00:18:41;;;;;;;7.97;6.57;;;;;;;22.56;63.44;100851.31;5102892;27;20031;-85
2022/07/25 00:21:06;;;;;;;10.13;6.68;;;;;;;22.55;62.80;100848.84;5137279;27;20209;-85
2022/07/25 00:23:32;;;;;;;8.48;6.82;;;;;;;22.53;63.85;100846.38;5102658;27;20035;-85
2022/07/25 00:25:57;;;;;;;8.07;6.60;;;;;;;22.52;62.90;100841.16;5138131;27;20031;-85
2022/07/25 00:28:22;;;;;;;10.47;6.93;;;;;;;22.51;63.23;100845.81;5119302;27;20035;-85
2022/07/25 00:30:48;;;;;;;10.17;6.90;;;;;;;22.48;62.41;100846.44;5102252;27;20479;-85
2022/07/25 00:33:14;;;;;;;7.70;6.70;;;;;;;22.45;62.64;100835.97;5119628;27;20034;-85
2022/07/25 00:35:39;;;;;;;8.30;6.20;;;;;;;22.48;62.32;100834.56;5137682;27;20058;-85
2022/07/25 00:38:05;;;;;;;8.02;6.18;;;;;;;22.47;62.22;100833.75;5102561;27;20027;-85
2022/07/25 00:40:30;;;;;;;7.53;6.73;;;;;;;22.43;62.25;100827.16;5136923;27;20425;-85
2022/07/25 00:42:56;;;;;;;9.73;6.47;;;;;;;22.42;62.19;100828.25;5136800;27;20382;-85
2022/07/25 00:45:21;;;;;;;9.27;7.00;;;;;;;22.39;62.40;100826.09;5120203;27;20276;-86
2022/07/25 00:47:47;;;;;;;7.80;6.83;;;;;;;22.37;62.32;100814.53;5119163;27;20110;-85
2022/07/25 00:50:12;;;;;;;10.47;6.60;;;;;;;22.36;62.10;100812.88;5102292;27;20554;-85
2022/07/25 00:52:38;;;;;;;9.30;6.53;;;;;;;22.38;61.76;100807.84;5119089;27;20467;-85
2022/07/25 00:55:04;;;;;;;7.53;6.10;;;;;;;22.34;61.58;100810.41;5102215;27;20459;-85
2022/07/25 00:57:29;;;;;;;9.27;6.90;;;;;;;22.32;61.79;100809.88;5119109;27;20066;-85
2022/07/25 00:59:54;;;;;;;8.43;6.17;;;;;;;22.29;61.76;100804.06;5119211;27;20383;-85
2022/07/25 01:02:20;;;;;;;10.57;6.57;;;;;;;22.25;62.36;100806.63;5119033;27;20053;-85
2022/07/25 01:04:45;;;;;;;7.03;6.33;;;;;;;22.21;62.20;100800.84;5102033;27;20118;-85
2022/07/25 01:07:11;;;;;;;7.57;6.73;;;;;;;22.18;62.03;100795.91;5101977;27;20051;-84
2022/07/25 01:09:37;;;;;;;7.57;6.47;;;;;;;22.17;62.44;100799.78;5119097;27;20284;-85
2022/07/25 01:12:02;;;;;;;9.03;6.40;;;;;;;22.16;62.49;100794.56;5101971;27;20517;-85
2022/07/25 01:14:28;;;;;;;9.02;6.18;;;;;;;22.09;62.13;100778.34;5100707;27;20394;-85
2022/07/25 01:16:53;;;;;;;8.83;6.40;;;;;;;22.07;62.31;100772.28;5136979;27;20467;-85
2022/07/25 01:19:19;;;;;;;7.47;6.23;;;;;;;22.09;62.02;100778.34;5137700;27;20044;-85
2022/07/25 01:21:44;;;;;;;8.95;6.30;;;;;;;22.08;62.22;100773.94;5084767;27;20065;-85
2022/07/25 01:24:10;;;;;;;8.77;6.20;;;;;;;22.05;62.31;100769.81;5118643;27;20031;-85
2022/07/25 01:26:36;;;;;;;6.80;6.07;;;;;;;22.04;62.76;100767.34;5118478;27;20028;-84
2022/07/25 01:29:03;;;;;;;8.27;6.40;;;;;;;22.02;62.21;100773.16;5118357;27;20023;-85
2022/07/25 01:31:29;;;;;;;7.35;6.28;;;;;;;22.02;62.07;100770.41;5119055;27;20063;-85
2022/07/25 01:33:54;;;;;;;9.63;6.30;;;;;;;21.99;62.20;100762.72;5118127;27;20119;-85
2022/07/25 01:36:19;;;;;;;7.45;6.40;;;;;;;22.00;61.57;100763.56;5118930;27;20035;-85
2022/07/25 01:38:45;;;;;;;7.17;6.20;;;;;;;21.95;61.81;100758.88;5101186;27;20058;-85
2022/07/25 01:41:10;;;;;;;10.60;6.00;;;;;;;21.97;61.67;100761.34;5101378;27;20031;-85
2022/07/25 01:43:36;;;;;;;6.60;6.00;;;;;;;21.98;61.35;100763.00;5118265;27;20060;-85
2022/07/25 01:46:01;;;;;;;7.68;6.32;;;;;;;22.00;61.67;100760.78;5136621;27;20386;-85
2022/07/25 01:48:27;;;;;;;6.77;6.03;;;;;;;21.99;61.17;100750.84;5101161;27;20032;-85
2022/07/25 01:50:53;;;;;;;7.60;5.88;;;;;;;21.99;61.12;100754.44;5117957;27;20035;-85
2022/07/25 01:53:18;;;;;;;7.53;6.20;;;;;;;21.98;61.01;100741.75;5136102;27;20035;-85
2022/07/25 01:55:45;;;;;;;7.97;6.17;;;;;;;22.00;61.09;100739.50;5135946;27;20114;-85
2022/07/25 01:58:10;;;;;;;8.88;5.95;;;;;;;21.99;61.20;100731.50;5117886;27;20035;-85
2022/07/25 02:00:35;;;;;;;7.00;6.27;;;;;;;22.00;60.92;100733.97;5100872;27;20035;-85
2022/07/25 02:05:45;;;;;;;9.02;6.13;;;;;;;22.01;60.80;100723.75;5121312;27;20088;-85
2022/07/25 02:08:10;;;;;;;7.93;6.30;;;;;;;22.02;60.94;100731.72;5101060;27;20410;-85
2022/07/25 02:10:36;;;;;;;6.37;5.63;;;;;;;22.02;60.72;100722.63;5100303;27;20547;-85
2022/07/25 02:13:01;;;;;;;6.83;5.53;;;;;;;22.03;60.39;100719.56;5100654;27;20118;-85
2022/07/25 02:15:27;;;;;;;7.28;5.78;;;;;;;22.02;60.63;100723.44;5135995;27;20074;-85
2022/07/25 02:17:52;;;;;;;10.10;5.80;;;;;;;22.04;60.17;100715.69;5117684;27;20142;-85
2022/07/25 02:20:18;;;;;;;9.87;6.27;;;;;;;22.02;60.12;100711.59;5135578;27;20456;-85
2022/07/25 02:22:46;;;;;;;11.03;6.40;;;;;;;22.02;60.53;100714.34;5117502;27;20033;-85
2022/07/25 02:25:11;;;;;;;9.38;6.60;;;;;;;21.99;60.12;100715.75;5116851;27;20027;-85
2022/07/25 02:27:37;;;;;;;10.37;7.00;;;;;;;21.97;60.50;100718.00;5117329;27;20069;-84
2022/07/25 02:30:04;;;;;;;6.93;6.03;;;;;;;21.96;60.51;100715.53;5117177;27;20092;-85
2022/07/25 02:32:29;;;;;;;6.78;6.07;;;;;;;21.95;60.64;100708.34;5134802;27;20051;-85
2022/07/25 02:34:57;;;;;;;7.77;6.43;;;;;;;21.95;60.18;100702.84;5101183;27;20023;-85
2022/07/25 02:37:23;;;;;;;6.88;6.18;;;;;;;21.90;60.77;100710.06;5117758;27;20035;-85
2022/07/25 02:39:48;;;;;;;9.37;5.90;;;;;;;21.86;60.78;100702.66;5117097;27;20052;-84
2022/07/25 02:42:14;;;;;;;7.07;6.22;;;;;;;21.83;60.51;100695.78;5100444;27;20035;-85
2022/07/25 02:44:39;;;;;;;6.90;6.00;;;;;;;21.82;60.57;100696.91;5117604;27;20483;-85
2022/07/25 02:47:05;;;;;;;7.27;6.07;;;;;;;21.79;60.92;100689.22;5134419;27;20042;-85
2022/07/25 02:49:30;;;;;;;11.97;6.63;;;;;;;21.77;60.70;100693.41;5099973;27;20030;-85
2022/07/25 02:51:56;;;;;;;7.13;6.32;;;;;;;21.75;61.05;100701.97;5100697;27;20113;-85
2022/07/25 02:54:22;;;;;;;9.90;6.23;;;;;;;21.73;60.73;100684.88;5100010;27;20114;-86
2022/07/25 02:56:47;;;;;;;8.00;6.00;;;;;;;21.69;60.79;100687.41;5113363;28;20138;-85
2022/07/25 02:59:12;;;;;;;8.37;6.17;;;;;;;21.67;61.04;100692.41;5116859;27;20463;-85
2022/07/25 03:01:38;;;;;;;8.03;5.83;;;;;;;21.64;61.04;100687.47;5100136;27;20042;-85
2022/07/25 03:04:04;;;;;;;8.50;6.37;;;;;;;21.61;60.90;100682.50;5100341;27;20035;-84
2022/07/25 03:06:29;;;;;;;7.68;6.43;;;;;;;21.61;61.04;100684.47;5100489;27;20066;-85
2022/07/25 03:08:54;;;;;;;8.57;6.10;;;;;;;21.59;61.31;100682.00;5116763;27;20059;-85
2022/07/25 03:11:20;;;;;;;7.67;5.70;;;;;;;21.60;60.96;100671.75;5099700;27;20035;-85
2022/07/25 03:13:45;;;;;;;8.88;6.35;;;;;;;21.56;60.84;100668.78;5117113;27;20393;-85
2022/07/25 03:16:10;;;;;;;8.33;6.13;;;;;;;21.57;61.04;100667.69;5150946;27;20027;-84
2022/07/25 03:18:36;;;;;;;8.33;6.10;;;;;;;21.59;60.69;100661.88;5133632;27;20039;-85
2022/07/25 03:21:01;;;;;;;9.23;6.20;;;;;;;21.58;60.78;100660.22;5100069;27;20076;-85
2022/07/25 03:23:27;;;;;;;11.30;5.73;;;;;;;21.58;61.35;100662.97;5099703;28;20378;-85
2022/07/25 03:25:53;;;;;;;8.60;6.70;;;;;;;21.58;60.62;100672.06;5117383;28;20455;-85
2022/07/25 03:28:19;;;;;;;7.80;6.40;;;;;;;21.58;60.86;100658.25;5099533;27;20031;-85
2022/07/25 03:30:44;;;;;;;7.45;6.03;;;;;;;21.58;60.36;100666.53;5099693;28;20524;-84
2022/07/25 03:33:10;;;;;;;10.67;6.17;;;;;;;21.57;60.71;100661.31;5099329;28;20476;-84
2022/07/25 03:35:38;;;;;;;12.73;6.30;;;;;;;21.53;60.74;100664.66;5115993;27;20479;-85
2022/07/25 03:38:04;;;;;;;6.67;5.97;;;;;;;21.51;60.91;100664.16;5082150;28;20420;-85
2022/07/25 03:40:30;;;;;;;9.93;6.25;;;;;;;21.53;60.73;100664.66;5117256;28;20088;-85
2022/07/25 03:42:56;;;;;;;7.60;5.82;;;;;;;21.50;60.73;100669.94;5116559;28;20076;-85
2022/07/25 03:45:21;;;;;;;13.27;6.00;;;;;;;21.45;60.74;100661.69;5134665;28;20030;-85
2022/07/25 03:47:47;;;;;;;8.57;6.53;;;;;;;21.43;60.97;100661.19;5116797;28;20035;-85
2022/07/25 03:50:12;;;;;;;10.20;6.35;;;;;;;21.38;61.46;100670.34;5098986;28;20412;-85
2022/07/25 03:52:38;;;;;;;6.60;5.77;;;;;;;21.36;61.50;100664.28;5116093;28;20026;-85
2022/07/25 03:55:08;;;;;;;8.40;6.33;;;;;;;21.32;61.69;100663.25;5099118;28;20532;-85
2022/07/25 03:57:33;;;;;;;8.10;5.93;;;;;;;21.32;61.90;100663.25;5116504;28;20031;-85
2022/07/25 03:59:59;;;;;;;9.73;6.43;;;;;;;21.26;61.95;100658.88;5099461;28;20478;-85
2022/07/25 04:02:24;;;;;;;8.23;6.05;;;;;;;21.24;62.33;100650.88;5099434;28;20067;-85
2022/07/25 04:04:50;;;;;;;8.93;6.20;;;;;;;21.21;62.01;100651.47;5116101;28;20084;-85
2022/07/25 04:07:16;;;;;;;7.05;6.35;;;;;;;21.16;62.55;100649.59;5099136;28;20489;-85
2022/07/25 04:09:41;;;;;;;8.70;6.30;;;;;;;21.13;62.64;100647.41;5134192;28;20027;-85
2022/07/25 04:12:06;;;;;;;11.53;6.63;;;;;;;21.12;62.39;100645.75;5116172;28;20035;-84
2022/07/25 04:14:32;;;;;;;7.70;6.27;;;;;;;21.12;62.59;100651.28;5134906;28;20031;-85
2022/07/25 04:16:58;;;;;;;9.02;6.55;;;;;;;21.09;62.62;100643.59;5150860;27;20035;-85
2022/07/25 04:19:23;;;;;;;9.03;6.43;;;;;;;21.11;63.04;100646.06;5098989;28;20467;-85
2022/07/25 04:21:49;;;;;;;8.68;6.57;;;;;;;21.10;62.61;100645.25;5098847;28;20035;-85
2022/07/25 04:24:14;;;;;;;11.40;6.80;;;;;;;21.07;62.58;100640.31;5116252;28;20027;-85
2022/07/25 04:26:40;;;;;;;7.53;6.53;;;;;;;21.08;62.72;100641.13;5115672;28;20039;-85
2022/07/25 04:29:05;;;;;;;11.60;6.70;;;;;;;21.09;62.74;100640.81;5132873;28;20033;-85
2022/07/25 04:31:30;;;;;;;7.07;6.15;;;;;;;21.08;62.69;100641.13;5134217;28;20035;-85
2022/07/25 04:33:56;;;;;;;8.83;6.20;;;;;;;21.07;63.04;100656.84;5151343;27;20031;-86
2022/07/25 04:36:21;;;;;;;13.13;6.90;;;;;;;21.13;62.88;100649.38;5149879;27;20432;-85
2022/07/25 04:38:46;;;;;;;8.83;6.57;;;;;;;21.14;62.88;100653.75;5098783;28;20024;-85
2022/07/25 04:41:12;;;;;;;6.67;5.97;;;;;;;21.15;63.02;100652.63;5133079;28;20043;-85
2022/07/25 04:43:37;;;;;;;10.95;6.60;;;;;;;21.12;62.86;100648.53;5150339;27;20031;-85
2022/07/25 04:46:03;;;;;;;7.40;6.60;;;;;;;21.11;62.90;100652.41;5134057;28;20426;-85
2022/07/25 04:48:28;;;;;;;10.83;6.47;;;;;;;21.12;63.30;100642.19;5101263;27;20032;-85
2022/07/25 04:50:54;;;;;;;9.13;6.27;;;;;;;21.11;63.26;100635.03;5102185;27;20457;-85
2022/07/25 04:53:19;;;;;;;10.18;6.68;;;;;;;21.11;63.99;100638.63;5102719;27;20168;-85
2022/07/25 04:55:45;;;;;;;9.13;6.57;;;;;;;21.11;63.81;100630.34;5115513;28;20093;-84
2022/07/25 04:58:10;;;;;;;11.73;6.88;;;;;;;21.14;64.00;100645.47;5099688;27;20039;-85
2022/07/25 05:00:36;;;;;;;9.63;6.70;;;;;;;21.15;63.27;100639.66;5119057;27;20023;-85
2022/07/25 05:03:02;;;;;;;8.33;6.03;;;;;;;21.17;63.60;100642.97;5102015;27;20079;-85
2022/07/25 05:05:27;;;;;;;10.32;6.20;;;;;;;21.21;63.70;100648.72;5119095;27;20031;-85
2022/07/25 05:07:57;;;;;;;8.60;6.23;;;;;;;21.25;63.52;100644.25;5137394;27;20371;-85
2022/07/25 05:10:27;;;;;;;8.85;6.30;;;;;;;21.30;63.57;100646.94;5137321;27;20084;-85
2022/07/25 05:12:52;;;;;;;9.50;6.13;;;;;;;21.31;63.64;100637.56;5102684;27;20059;-84
2022/07/25 05:15:18;;;;;;;11.97;6.83;;;;;;;21.31;63.57;100651.34;5119024;27;20031;-84
2022/07/25 05:17:44;;;;;;;10.10;6.80;;;;;;;21.33;63.89;100656.59;5101631;27;20530;-84
2022/07/25 05:20:10;;;;;;;10.83;6.53;;;;;;;21.33;63.91;100657.44;5118958;27;20106;-85
2022/07/25 05:22:36;;;;;;;10.48;6.97;;;;;;;21.33;64.10;100648.31;5137004;27;20023;-87
2022/07/25 05:25:01;;;;;;;7.27;6.30;;;;;;;21.43;63.83;100648.19;5136843;27;20031;-89
2022/07/25 05:27:27;;;;;;;11.70;6.60;;;;;;;21.53;63.64;100642.59;5118707;27;20474;-90
2022/07/25 05:29:53;;;;;;;12.43;6.77;;;;;;;21.63;63.26;100644.41;5118580;27;20810;-90
2022/07/25 05:32:18;;;;;;;10.40;7.10;;;;;;;21.70;63.28;100652.31;5118262;27;20136;-90
2022/07/25 05:34:44;;;;;;;10.33;7.07;;;;;;;21.78;62.98;100648.91;5119103;27;20038;-90
2022/07/25 05:37:10;;;;;;;15.82;7.18;;;;;;;21.79;62.72;100653.34;5136803;27;20452;-87
2022/07/25 05:39:38;;;;;;;8.53;6.63;;;;;;;21.83;62.88;100659.06;5101327;27;20064;-86
2022/07/25 05:42:04;;;;;;;11.30;7.28;;;;;;;21.85;62.78;100665.94;5119006;27;20054;-89
2022/07/25 05:44:29;;;;;;;12.57;7.17;;;;;;;21.89;62.98;100653.19;5101532;27;20070;-88
2022/07/25 05:46:56;;;;;;;11.37;7.50;;;;;;;21.91;62.72;100647.38;5152281;27;20390;-88
2022/07/25 05:49:21;;;;;;;11.25;7.55;;;;;;;21.93;62.48;100650.66;5101173;27;20110;-86
2022/07/25 05:51:47;;;;;;;11.95;7.13;;;;;;;21.93;62.65;100650.66;5101153;27;20134;-88
2022/07/25 05:54:12;;;;;;;12.33;7.23;;;;;;;21.90;63.05;100646.53;5118916;27;20118;-88
2022/07/25 05:56:38;;;;;;;10.63;6.80;;;;;;;21.89;62.72;100664.25;5100674;27;20120;-89
2022/07/25 05:59:03;;;;;;;12.52;7.18;;;;;;;21.93;63.04;100666.41;5152089;27;20026;-90
2022/07/25 06:01:28;;;;;;;9.07;6.53;;;;;;;21.87;63.14;100666.47;5136886;27;20378;-91
2022/07/25 06:03:54;;;;;;;12.60;7.07;;;;;;;21.88;63.64;100670.88;5153612;27;20023;-90
2022/07/25 06:06:19;;;;;;;12.67;7.17;;;;;;;21.94;63.35;100681.84;5101819;27;20031;-90
2022/07/25 06:08:45;;;;;;;11.13;7.35;;;;;;;21.99;62.86;100676.28;5118010;27;20471;-91
2022/07/25 06:11:10;;;;;;;13.43;7.00;;;;;;;21.99;62.80;100670.75;5118250;27;20475;-89
2022/07/25 06:13:36;;;;;;;9.77;7.03;;;;;;;21.92;62.43;100676.63;5117787;27;20046;-91
2022/07/25 06:16:01;;;;;;;12.33;7.23;;;;;;;21.83;62.94;100675.63;5084738;27;20122;-90
2022/07/25 06:18:27;;;;;;;9.18;6.93;;;;;;;21.80;63.29;100674.28;5117794;27;20459;-88
2022/07/25 06:20:52;;;;;;;8.93;6.30;;;;;;;21.84;62.85;100680.06;5117448;27;20031;-88
2022/07/25 06:23:18;;;;;;;11.83;7.00;;;;;;;21.84;62.63;100677.28;5135804;27;20029;-88
2022/07/25 06:25:45;;;;;;;13.15;6.43;;;;;;;21.92;62.56;100676.63;5117474;27;20035;-88
2022/07/25 06:28:13;;;;;;;10.70;6.18;;;;;;;22.02;61.85;100682.00;5117757;27;20084;-88
2022/07/25 06:30:40;;;;;;;10.02;6.30;;;;;;;22.10;61.96;100688.84;5083914;27;20471;-88
2022/07/25 06:33:05;;;;;;;9.93;6.67;;;;;;;22.10;61.30;100688.00;5117279;27;20031;-88
2022/07/25 06:35:31;;;;;;;13.83;6.60;;;;;;;22.06;61.56;100693.31;5134582;27;20432;-87
2022/07/25 06:37:56;;;;;;;9.47;6.73;;;;;;;22.01;62.17;100688.69;5136193;27;20279;-88
2022/07/25 06:40:22;;;;;;;10.10;6.53;;;;;;;22.05;61.71;100699.94;5134627;27;20043;-88
2022/07/25 06:42:47;;;;;;;9.70;6.50;;;;;;;22.11;61.74;100686.88;5117208;27;20490;-87
2022/07/25 06:45:14;;;;;;;9.63;5.80;;;;;;;22.07;61.86;100681.97;5100691;27;20435;-88
2022/07/25 06:47:43;;;;;;;8.48;6.00;;;;;;;22.16;61.94;100689.56;5100075;27;20486;-88
2022/07/25 06:50:11;;;;;;;7.90;6.15;;;;;;;22.22;61.62;100691.16;5116697;27;20173;-88
2022/07/25 06:52:36;;;;;;;16.17;6.43;;;;;;;22.31;61.62;100689.38;5116969;27;20038;-88
2022/07/25 06:55:03;;;;;;;8.57;6.00;;;;;;;22.31;61.67;100688.53;5099808;27;20360;-87
2022/07/25 06:57:29;;;;;;;9.15;6.40;;;;;;;22.32;61.91;100687.44;5134950;27;20110;-88
2022/07/25 06:59:54;;;;;;;7.70;5.50;;;;;;;22.29;62.43;100688.81;5116907;27;20439;-88
2022/07/25 07:02:20;;;;;;;6.50;5.47;;;;;;;22.28;62.89;100683.59;5133519;27;20482;-88
2022/07/25 07:04:45;;;;;;;7.90;5.32;;;;;;;22.30;62.87;100684.13;5116801;27;20023;-88
2022/07/25 07:07:11;;;;;;;7.23;5.20;;;;;;;22.33;62.57;100689.09;5082947;27;20488;-88
2022/07/25 07:09:36;;;;;;;6.00;5.33;;;;;;;22.34;62.90;100680.50;5116605;27;20058;-88
2022/07/25 07:12:02;;;;;;;8.17;4.90;;;;;;;22.45;62.93;100686.69;5098593;27;20367;-88
2022/07/25 07:14:27;;;;;;;8.30;4.50;;;;;;;22.51;62.28;100685.50;5116474;27;20039;-88
2022/07/25 07:16:52;;;;;;;9.00;4.50;;;;;;;22.58;62.11;100698.94;5134510;27;20035;-88
2022/07/25 07:19:18;;;;;;;7.22;4.45;;;;;;;22.77;62.31;100685.91;5098937;27;20479;-88
2022/07/25 07:21:44;;;;;;;7.10;4.60;;;;;;;22.81;61.63;100693.59;5134699;27;20028;-89
2022/07/25 07:24:10;;;;;;;8.77;4.13;;;;;;;22.78;61.31;100682.03;5099609;27;20024;-88
2022/07/25 07:26:36;;;;;;;12.13;4.07;;;;;;;22.84;61.32;100681.94;5135257;27;20056;-88
2022/07/25 07:29:02;;;;;;;7.60;3.90;;;;;;;22.92;61.33;100681.25;5134866;27;20038;-88
2022/07/25 07:31:28;;;;;;;6.57;3.80;;;;;;;22.96;61.59;100685.06;5108098;27;20027;-88
2022/07/25 07:33:53;;;;;;;6.20;3.35;;;;;;;22.94;61.43;100688.13;5082642;28;20031;-88
2022/07/25 07:36:19;;;;;;;8.83;3.70;;;;;;;22.98;61.53;100693.88;5115923;28;20031;-88
2022/07/25 07:38:45;;;;;;;6.80;3.53;;;;;;;22.92;62.25;100695.91;5116477;28;20424;-88
2022/07/25 07:41:11;;;;;;;5.43;3.20;;;;;;;22.86;62.43;100691.56;5134240;28;20031;-88
2022/07/25 07:43:36;;;;;;;9.15;3.10;;;;;;;22.78;63.42;100687.56;5082532;28;20195;-88
2022/07/25 07:46:02;;;;;;;7.03;2.73;;;;;;;22.65;63.75;100696.63;5099173;28;20114;-88
2022/07/25 07:48:28;;;;;;;8.83;3.00;;;;;;;22.69;64.02;100691.31;5116383;28;20066;-88
2022/07/25 07:50:54;;;;;;;4.13;2.30;;;;;;;22.86;64.10;100694.34;5134418;28;20106;-88
2022/07/25 07:53:19;;;;;;;10.40;2.37;;;;;;;23.15;63.58;100701.66;5133177;28;20420;-88
2022/07/25 07:55:46;;;;;;;4.93;2.60;;;;;;;23.43;62.46;100705.28;5115709;28;20501;-88
2022/07/25 07:58:14;;;;;;;5.33;2.40;;;;;;;23.64;62.24;100702.13;5116764;28;20486;-88
2022/07/25 08:00:41;;;;;;;8.40;2.92;;;;;;;23.75;61.58;100706.31;5116030;28;20027;-89
2022/07/25 08:03:07;;;;;;;8.55;2.30;;;;;;;23.93;61.67;100712.06;5134275;28;20478;-88
2022/07/25 08:05:38;;;;;;;8.05;2.17;;;;;;;23.67;61.53;100720.06;5115974;28;20039;-87
2022/07/25 08:08:06;;;;;;;5.30;2.13;;;;;;;23.49;62.06;100711.53;5134460;28;20019;-87
2022/07/25 08:10:35;;;;;;;4.43;2.10;;;;;;;23.57;62.32;100702.50;5116023;28;20031;-86
2022/07/25 08:13:10;;;;;;;5.22;2.10;;;;;;;23.62;62.52;100705.19;5115932;28;20383;-87
2022/07/25 08:15:36;;;;;;;4.15;2.13;;;;;;;23.58;63.05;100711.66;5116028;28;20084;-85
2022/07/25 08:18:03;;;;;;;5.37;2.07;;;;;;;23.38;63.71;100710.09;5095347;28;20040;-85
2022/07/25 08:20:28;;;;;;;6.72;2.45;;;;;;;23.30;64.54;100703.31;5126305;28;20051;-86
2022/07/25 08:22:54;;;;;;;5.10;1.93;;;;;;;23.09;65.29;100714.72;5135925;27;20102;-86
2022/07/25 08:25:20;;;;;;;5.93;1.93;;;;;;;23.07;65.45;100710.59;5103326;27;20038;-85
2022/07/25 08:27:46;;;;;;;7.25;1.90;;;;;;;23.12;65.65;100702.25;5119799;27;20084;-86
2022/07/25 08:30:13;;;;;;;8.02;2.72;;;;;;;23.16;65.41;100713.53;5138011;27;20066;-87
2022/07/25 08:32:55;;;;;;;5.13;1.80;;;;;;;23.13;64.87;100714.94;5119981;27;20042;-86
2022/07/25 08:35:21;;;;;;;6.40;1.80;;;;;;;23.08;65.53;100720.56;5138284;27;20087;-86
2022/07/25 08:37:47;;;;;;;3.33;1.60;;;;;;;23.12;65.25;100729.94;5085644;27;20035;-86
2022/07/25 08:40:15;;;;;;;3.90;1.65;;;;;;;23.39;64.08;100715.31;5137964;27;20023;-87
2022/07/25 08:42:41;;;;;;;7.13;1.90;;;;;;;23.78;63.69;100718.72;5119893;27;20401;-86
2022/07/25 08:45:09;;;;;;;5.57;1.73;;;;;;;24.04;62.96;100723.78;5137940;27;20035;-86
2022/07/25 08:47:35;;;;;;;9.25;1.92;;;;;;;24.28;61.94;100718.00;5119063;27;20130;-86
2022/07/25 08:50:07;;;;;;;7.20;2.10;;;;;;;24.50;61.62;100712.47;5137005;27;20125;-85
2022/07/25 08:52:36;;;;;;;6.43;2.20;;;;;;;24.58;61.22;100721.19;5137563;27;20103;-85
2022/07/25 08:55:07;;;;;;;4.82;2.00;;;;;;;24.68;60.92;100710.72;5102014;27;20046;-85
2022/07/25 08:57:34;;;;;;;6.72;2.00;;;;;;;24.66;60.83;100712.97;5136274;28;20027;-85
2022/07/25 09:00:00;;;;;;;6.85;2.10;;;;;;;24.60;60.76;100727.28;5117845;28;20459;-85
2022/07/25 09:02:26;;;;;;;6.73;2.03;;;;;;;24.48;61.97;100725.03;5135789;28;20038;-87
2022/07/25 09:04:53;;;;;;;7.18;1.90;;;;;;;24.36;61.29;100722.81;5100675;28;20027;-86
2022/07/25 09:07:36;;;;;;;4.65;2.08;;;;;;;24.23;61.80;100724.47;5118138;28;20462;-86
2022/07/25 09:10:11;;;;;;;11.13;2.43;;;;;;;24.20;62.52;100727.03;5118004;28;20066;-87
2022/07/25 09:12:37;;;;;;;8.00;2.70;;;;;;;24.18;62.74;100732.88;5135875;28;20483;-87
2022/07/25 09:15:03;;;;;;;7.50;2.55;;;;;;;24.35;62.42;100715.63;5117729;28;20144;-87
2022/07/25 09:17:28;;;;;;;5.10;2.50;;;;;;;24.63;61.98;100735.78;5117229;28;20024;-86
2022/07/25 09:19:57;;;;;;;8.27;2.30;;;;;;;24.82;61.03;100727.28;5100510;28;20127;-86
2022/07/25 09:22:23;;;;;;;10.10;2.30;;;;;;;25.00;60.46;100731.00;5100075;28;20061;-87
2022/07/25 09:24:48;;;;;;;4.70;2.03;;;;;;;25.07;59.11;100732.53;5117484;28;20452;-87
2022/07/25 09:27:14;;;;;;;5.67;2.10;;;;;;;25.16;59.41;100736.19;5117306;28;20055;-87
2022/07/25 09:29:43;;;;;;;5.72;2.25;;;;;;;25.15;58.05;100735.34;5117228;28;20117;-86
2022/07/25 09:32:21;;;;;;;6.47;2.10;;;;;;;25.46;57.65;100729.03;5117193;28;20023;-87
2022/07/25 09:34:48;;;;;;;6.10;2.23;;;;;;;25.24;54.44;100746.50;5134470;27;20024;-87
2022/07/25 09:37:16;;;;;;;5.07;2.25;;;;;;;24.93;55.21;100755.59;5100438;28;20031;-87
2022/07/25 09:39:50;;;;;;;3.28;2.17;;;;;;;24.74;56.01;100763.28;5117685;28;20378;-86
2022/07/25 09:42:23;;;;;;;8.68;2.47;;;;;;;24.57;57.45;100766.72;5135920;28;20031;-87
2022/07/25 09:45:12;;;;;;;7.25;2.50;;;;;;;24.49;58.06;100757.16;5117495;28;20031;-87
2022/07/25 09:47:56;;;;;;;8.20;2.50;;;;;;;24.67;58.13;100758.16;5152254;27;20035;-87
2022/07/25 09:50:23;;;;;;;10.90;2.65;;;;;;;24.74;57.58;100761.31;5117698;28;20455;-87
2022/07/25 09:52:51;;;;;;;11.75;3.20;;;;;;;24.79;57.87;100774.28;5117747;28;20126;-86
2022/07/25 09:55:18;;;;;;;7.22;3.10;;;;;;;24.73;57.17;100759.72;5076648;27;1145369;-86
2022/07/25 09:57:44;;;;;;;6.07;2.50;;;;;;;24.66;56.75;100762.09;5136859;27;20035;-87
2022/07/25 10:00:11;;;;;;;9.53;2.90;;;;;;;24.66;57.88;100770.41;5118556;27;20036;-87
2022/07/25 10:02:43;;;;;;;7.53;2.63;;;;;;;24.93;58.17;100758.38;5117836;27;20037;-87
2022/07/25 10:05:46;;;;;;;8.50;2.70;;;;;;;25.19;56.32;100777.19;5118690;27;20027;-87
2022/07/25 10:08:13;;;;;;;5.82;2.63;;;;;;;24.96;55.72;100759.72;5137126;27;20031;-87
2022/07/25 10:10:40;;;;;;;4.75;2.58;;;;;;;24.95;56.32;100767.22;5118607;27;20037;-87
2022/07/25 10:13:09;;;;;;;8.75;2.47;;;;;;;25.12;55.52;100772.06;5135963;27;20066;-86
2022/07/25 10:15:52;;;;;;;6.05;2.60;;;;;;;25.32;55.60;100770.78;5136386;27;20023;-86
2022/07/25 10:18:23;;;;;;;7.60;2.90;;;;;;;25.81;53.95;100764.50;5118689;27;20112;-86
2022/07/25 10:20:52;;;;;;;8.88;2.30;;;;;;;26.23;52.54;100759.41;5101990;27;20121;-87
2022/07/25 10:23:17;;;;;;;6.35;2.53;;;;;;;26.74;50.93;100760.63;5135832;27;20027;-87
2022/07/25 10:25:43;;;;;;;5.73;2.37;;;;;;;26.73;49.63;100755.41;5118082;27;20176;-88
2022/07/25 10:28:09;;;;;;;8.18;2.80;;;;;;;26.58;49.66;100757.50;5118099;27;20474;-88
2022/07/25 10:30:37;;;;;;;3.90;2.07;;;;;;;26.70;49.19;100756.88;5135096;27;20092;-87
2022/07/25 10:33:16;;;;;;;3.78;2.10;;;;;;;26.81;48.41;100757.38;5117714;27;20058;-87
2022/07/25 10:35:42;;;;;;;7.15;2.30;;;;;;;27.10;47.61;100764.22;5117514;27;20466;-85
2022/07/25 10:38:08;;;;;;;6.25;2.65;;;;;;;27.54;46.46;100769.72;5117474;27;20126;-86
2022/07/25 10:40:37;;;;;;;6.17;2.40;;;;;;;27.87;45.10;100771.88;5136467;27;20122;-86
2022/07/25 10:43:12;;;;;;;5.43;2.60;;;;;;;28.07;44.47;100773.94;5117627;27;20038;-86
2022/07/25 10:45:53;;;;;;;6.55;2.80;;;;;;;28.12;45.02;100770.16;5135360;27;20046;-85
2022/07/25 10:48:24;;;;;;;4.72;2.25;;;;;;;28.15;44.94;100775.88;5117402;27;20031;-87
2022/07/25 10:51:00;;;;;;;5.57;3.10;;;;;;;28.26;44.18;100778.25;5135910;27;20023;-85
2022/07/25 10:53:39;;;;;;;2.80;2.50;;;;;;;28.06;44.40;100782.66;5116792;27;20479;-86
2022/07/25 10:56:09;;;;;;;6.90;2.55;;;;;;;28.10;44.35;100778.06;5117062;27;20042;-86
2022/07/25 10:58:45;;;;;;;7.57;3.03;;;;;;;28.34;44.50;100777.41;5116873;27;20382;-86
2022/07/25 11:01:13;;;;;;;7.47;2.50;;;;;;;28.76;43.15;100782.22;5135173;27;20031;-87
2022/07/25 11:03:43;;;;;;;5.10;2.97;;;;;;;28.55;42.60;100785.78;5100649;27;20101;-86
2022/07/25 11:06:14;;;;;;;5.38;3.00;;;;;;;28.34;43.24;100789.38;5116745;27;20031;-86
2022/07/25 11:08:39;;;;;;;8.05;3.10;;;;;;;28.14;44.19;100782.63;5117591;27;20031;-86
2022/07/25 11:11:05;;;;;;;7.75;3.35;;;;;;;28.40;43.89;100786.41;5116861;27;20073;-86
2022/07/25 11:13:39;;;;;;;10.10;3.60;;;;;;;28.37;43.05;100787.88;5082663;27;20108;-86
2022/07/25 11:16:05;;;;;;;7.70;4.03;;;;;;;27.99;43.53;100784.00;5116859;27;20033;-85
2022/07/25 11:18:41;;;;;;;7.70;3.95;;;;;;;27.86;44.49;100803.69;5135254;27;20115;-86
2022/07/25 11:21:07;;;;;;;8.83;4.20;;;;;;;27.65;43.94;100784.91;5117181;27;20046;-86
2022/07/25 11:23:34;;;;;;;7.53;4.55;;;;;;;27.40;44.92;100790.25;5134760;27;20051;-86
2022/07/25 11:26:04;;;;;;;6.53;3.97;;;;;;;27.23;45.58;100802.19;5116346;27;20043;-86